Tyronza, AR (72386)

7:27 AM CDT en Marzo 29, 2015 (GMT -0500)
Hill Country Estates | | Change Station
CLOSE
Current Station
Estación meteorológica personal
Location: Harrisburg, AR
Altura: 318 ft
Estaciones meteorológicas cercanas
Aviso en curso: Frost Advisory Aviso activo: Record Report

Alt 318 ft 35.65 °N, 90.65 °W | Updated 5 minutes ago

Despejado
Despejado
34.0 ° F
Sensación térmica 31 ° F
N
3.7
Viento Variable Viento desde Sur

Hoy
Alta -- | Baja -- ° F
--% Posibilidad de precipitaciones
Ayer
Alta -- | Baja -- ° F
Precip. -- pul
6:52 AM 7:20 PM
Gibosa creciente, 71% visible
Presión 30.26 pul
Visibilidad 10.0 Millas
Nubes Despejado
Vientos helados 31 ° F
Punto de rocío 29 ° F
Humedad 83%
Precipitaciones 0.00 pul
Espesor de la nieve No disponible.
UV 0 de una escala de 12
Polen 10.20 de una escala de 12
Calidad del aire No disponible.
Flu Activity No disponible.
METAR KAWM 291153Z AUTO 15008KT 10SM CLR 02/M02 A3025 RMK AO2 SLP245 T00171017 10028 20011 55005

More Conditions Fewer Conditions

Presión 30.26 pul
Visibilidad 10.0 Millas
Nubes Despejado
Vientos helados 31 ° F
Punto de rocío 29 ° F
Humedad 83%
Precipitaciones 0.00 pul
Espesor de la nieve No disponible.
UV 0 de una escala de 12
Polen 10.20 de una escala de 12
Calidad del aire No disponible.
Flu Activity No disponible.
METAR KAWM 291153Z AUTO 15008KT 10SM CLR 02/M02 A3025 RMK AO2 SLP245 T00171017 10028 20011 55005

More Conditions Fewer Conditions

10-Day Weather Forecast

Almanac

Astronomía

Mar. 29, 2015 Salida Puesta
Hora real
Crepúsculo civil
Crepúsculo náutico
Crepúsculo astronómico
Luna
Horas de luz
Horas de luz
Tomorrow will be .
, % of the Moon is Illuminated

Extremos de hoy

Máximos del estado Bajos del estado

Community

WunderPhotos

Upload Photos

1,809,229 ¡fotos cargadas!

WunderBlogs® & News

Nearby

Calidad del aire

  Calidad del aire Índice AQ Contaminante
Not available.

Grosos de nieve

Estación Profundido Altura

Actividad de terremotos

Ciudad Distance Mag. Tiempo y dato
Magnitud mínima muestra es 2,5.

Temperaturas de aguas costeras

Lugar Temperatura

Stations

Estaciones meteorológicas cercanas

Ubicación de la estación Temp. Vientos helados Punto de rocío Humedad Viento Precip. Alt Actualizado Tipo
                   
Frost Advisory
Statement as of 3:23 AM CDT en Marzo 29, 2015

... Frost advisory remains in effect until 9 am CDT this morning...

* temperature/frost coverage... 33 to 36 degrees.

* Timing... through mid morning.

* Impacts... sensitive vegetation may be harmed if left uncovered.

Precautionary/preparedness actions...

A frost advisory means that frost is possible. Sensitive outdoor
plants may be killed if left uncovered.